sensor_id;sensor_type;location;lat;lon;timestamp;P1;durP1;ratioP1;P2;durP2;ratioP2
55364;SDS011;41245;45.384;20.390;2023-04-01T00:00:28;11.95;;;5.28;;
55364;SDS011;41245;45.384;20.390;2023-04-01T00:02:55;9.60;;;3.40;;
55364;SDS011;41245;45.384;20.390;2023-04-01T00:05:21;8.13;;;3.95;;
55364;SDS011;41245;45.384;20.390;2023-04-01T00:07:49;17.17;;;3.88;;
55364;SDS011;41245;45.384;20.390;2023-04-01T00:10:16;11.13;;;3.22;;
55364;SDS011;41245;45.384;20.390;2023-04-01T00:12:42;6.03;;;3.00;;
55364;SDS011;41245;45.384;20.390;2023-04-01T00:15:09;12.75;;;3.70;;
55364;SDS011;41245;45.384;20.390;2023-04-01T00:17:35;6.63;;;3.28;;
55364;SDS011;41245;45.384;20.390;2023-04-01T00:20:01;7.97;;;3.78;;
55364;SDS011;41245;45.384;20.390;2023-04-01T00:22:28;8.73;;;3.20;;
55364;SDS011;41245;45.384;20.390;2023-04-01T00:24:54;8.48;;;3.40;;
55364;SDS011;41245;45.384;20.390;2023-04-01T00:27:20;7.00;;;3.67;;
55364;SDS011;41245;45.384;20.390;2023-04-01T00:29:46;6.65;;;3.83;;
55364;SDS011;41245;45.384;20.390;2023-04-01T00:32:13;8.20;;;3.50;;
55364;SDS011;41245;45.384;20.390;2023-04-01T00:34:40;12.15;;;4.72;;
55364;SDS011;41245;45.384;20.390;2023-04-01T00:37:07;8.38;;;3.50;;
55364;SDS011;41245;45.384;20.390;2023-04-01T00:39:33;7.90;;;3.65;;
55364;SDS011;41245;45.384;20.390;2023-04-01T00:42:00;9.88;;;3.80;;
55364;SDS011;41245;45.384;20.390;2023-04-01T00:44:28;9.10;;;4.35;;
55364;SDS011;41245;45.384;20.390;2023-04-01T00:46:54;10.48;;;4.05;;
55364;SDS011;41245;45.384;20.390;2023-04-01T00:49:22;9.63;;;3.17;;
55364;SDS011;41245;45.384;20.390;2023-04-01T00:51:50;7.97;;;3.38;;
55364;SDS011;41245;45.384;20.390;2023-04-01T00:54:17;6.35;;;2.88;;
55364;SDS011;41245;45.384;20.390;2023-04-01T00:56:45;8.73;;;2.95;;
55364;SDS011;41245;45.384;20.390;2023-04-01T00:59:16;6.68;;;3.08;;
55364;SDS011;41245;45.384;20.390;2023-04-01T01:01:45;12.95;;;3.65;;
55364;SDS011;41245;45.384;20.390;2023-04-01T01:04:21;6.93;;;3.25;;
55364;SDS011;41245;45.384;20.390;2023-04-01T01:06:56;16.33;;;4.70;;
55364;SDS011;41245;45.384;20.390;2023-04-01T01:09:25;14.80;;;3.85;;
55364;SDS011;41245;45.384;20.390;2023-04-01T01:14:49;9.70;;;4.38;;
55364;SDS011;41245;45.384;20.390;2023-04-01T01:22:39;10.50;;;4.15;;
55364;SDS011;41245;45.384;20.390;2023-04-01T01:25:25;12.68;;;4.20;;
55364;SDS011;41245;45.384;20.390;2023-04-01T01:33:34;17.35;;;6.43;;
55364;SDS011;41245;45.384;20.390;2023-04-01T01:36:02;14.70;;;5.57;;
55364;SDS011;41245;45.384;20.390;2023-04-01T01:38:31;11.52;;;4.95;;
55364;SDS011;41245;45.384;20.390;2023-04-01T01:40:57;10.95;;;4.75;;
55364;SDS011;41245;45.384;20.390;2023-04-01T01:43:29;6.20;;;3.25;;
55364;SDS011;41245;45.384;20.390;2023-04-01T01:45:57;10.30;;;3.75;;
55364;SDS011;41245;45.384;20.390;2023-04-01T01:48:24;8.45;;;3.38;;
55364;SDS011;41245;45.384;20.390;2023-04-01T01:50:50;10.88;;;3.75;;
55364;SDS011;41245;45.384;20.390;2023-04-01T01:53:17;7.22;;;3.17;;
55364;SDS011;41245;45.384;20.390;2023-04-01T01:55:44;8.15;;;3.83;;
55364;SDS011;41245;45.384;20.390;2023-04-01T01:58:18;6.95;;;3.35;;
55364;SDS011;41245;45.384;20.390;2023-04-01T02:00:50;8.43;;;3.35;;
55364;SDS011;41245;45.384;20.390;2023-04-01T02:03:17;17.08;;;4.40;;
55364;SDS011;41245;45.384;20.390;2023-04-01T02:05:45;5.60;;;3.08;;
55364;SDS011;41245;45.384;20.390;2023-04-01T02:08:16;10.13;;;3.55;;
55364;SDS011;41245;45.384;20.390;2023-04-01T02:10:45;11.48;;;4.45;;
55364;SDS011;41245;45.384;20.390;2023-04-01T02:13:27;11.93;;;4.28;;
55364;SDS011;41245;45.384;20.390;2023-04-01T02:15:55;13.32;;;4.93;;
55364;SDS011;41245;45.384;20.390;2023-04-01T02:18:23;10.88;;;4.25;;
55364;SDS011;41245;45.384;20.390;2023-04-01T02:20:49;12.07;;;4.25;;
55364;SDS011;41245;45.384;20.390;2023-04-01T02:23:16;12.68;;;4.38;;
55364;SDS011;41245;45.384;20.390;2023-04-01T02:25:42;10.38;;;4.70;;
55364;SDS011;41245;45.384;20.390;2023-04-01T02:28:09;7.38;;;4.80;;
55364;SDS011;41245;45.384;20.390;2023-04-01T02:30:36;10.43;;;4.97;;
55364;SDS011;41245;45.384;20.390;2023-04-01T02:33:04;9.00;;;5.10;;
55364;SDS011;41245;45.384;20.390;2023-04-01T02:35:32;10.77;;;6.05;;
55364;SDS011;41245;45.384;20.390;2023-04-01T02:37:58;13.27;;;5.38;;
55364;SDS011;41245;45.384;20.390;2023-04-01T02:40:24;9.35;;;4.30;;
55364;SDS011;41245;45.384;20.390;2023-04-01T02:42:50;12.32;;;5.22;;
55364;SDS011;41245;45.384;20.390;2023-04-01T02:45:16;15.38;;;5.68;;
55364;SDS011;41245;45.384;20.390;2023-04-01T02:47:43;11.77;;;5.93;;
55364;SDS011;41245;45.384;20.390;2023-04-01T02:50:09;14.20;;;8.45;;
55364;SDS011;41245;45.384;20.390;2023-04-01T02:52:35;20.30;;;10.43;;
55364;SDS011;41245;45.384;20.390;2023-04-01T02:55:02;16.92;;;8.68;;
55364;SDS011;41245;45.384;20.390;2023-04-01T02:57:28;15.10;;;9.73;;
55364;SDS011;41245;45.384;20.390;2023-04-01T02:59:54;12.63;;;7.88;;
55364;SDS011;41245;45.384;20.390;2023-04-01T03:02:20;16.85;;;8.73;;
55364;SDS011;41245;45.384;20.390;2023-04-01T03:04:46;12.48;;;7.35;;
55364;SDS011;41245;45.384;20.390;2023-04-01T03:07:12;17.20;;;7.25;;
55364;SDS011;41245;45.384;20.390;2023-04-01T03:09:38;16.60;;;7.15;;
55364;SDS011;41245;45.384;20.390;2023-04-01T03:12:05;13.98;;;7.00;;
55364;SDS011;41245;45.384;20.390;2023-04-01T03:14:31;13.25;;;7.18;;
55364;SDS011;41245;45.384;20.390;2023-04-01T03:16:57;15.23;;;7.95;;
55364;SDS011;41245;45.384;20.390;2023-04-01T03:19:23;17.10;;;8.80;;
55364;SDS011;41245;45.384;20.390;2023-04-01T03:21:49;20.65;;;9.63;;
55364;SDS011;41245;45.384;20.390;2023-04-01T03:24:15;19.30;;;8.95;;
55364;SDS011;41245;45.384;20.390;2023-04-01T03:26:41;21.08;;;10.13;;
55364;SDS011;41245;45.384;20.390;2023-04-01T03:29:07;23.50;;;9.90;;
55364;SDS011;41245;45.384;20.390;2023-04-01T03:31:33;16.13;;;8.68;;
55364;SDS011;41245;45.384;20.390;2023-04-01T03:33:59;21.90;;;10.38;;
55364;SDS011;41245;45.384;20.390;2023-04-01T03:36:25;21.70;;;10.23;;
55364;SDS011;41245;45.384;20.390;2023-04-01T03:38:51;20.65;;;9.30;;
55364;SDS011;41245;45.384;20.390;2023-04-01T03:41:17;21.88;;;9.55;;
55364;SDS011;41245;45.384;20.390;2023-04-01T03:43:44;21.13;;;9.55;;
55364;SDS011;41245;45.384;20.390;2023-04-01T03:46:10;14.95;;;9.55;;
55364;SDS011;41245;45.384;20.390;2023-04-01T03:48:36;19.70;;;10.00;;
55364;SDS011;41245;45.384;20.390;2023-04-01T03:51:06;24.60;;;10.85;;
55364;SDS011;41245;45.384;20.390;2023-04-01T03:53:32;18.58;;;10.43;;
55364;SDS011;41245;45.384;20.390;2023-04-01T03:55:58;23.80;;;10.60;;
55364;SDS011;41245;45.384;20.390;2023-04-01T03:58:24;19.38;;;9.52;;
55364;SDS011;41245;45.384;20.390;2023-04-01T04:00:50;20.63;;;10.02;;
55364;SDS011;41245;45.384;20.390;2023-04-01T04:03:16;16.77;;;9.88;;
55364;SDS011;41245;45.384;20.390;2023-04-01T04:05:48;17.30;;;9.35;;
55364;SDS011;41245;45.384;20.390;2023-04-01T04:08:15;16.98;;;8.98;;
55364;SDS011;41245;45.384;20.390;2023-04-01T04:10:41;19.17;;;11.20;;
55364;SDS011;41245;45.384;20.390;2023-04-01T04:13:07;23.20;;;11.35;;
55364;SDS011;41245;45.384;20.390;2023-04-01T04:15:34;28.15;;;11.43;;
55364;SDS011;41245;45.384;20.390;2023-04-01T04:18:00;27.92;;;13.05;;
55364;SDS011;41245;45.384;20.390;2023-04-01T04:20:26;17.83;;;11.45;;
55364;SDS011;41245;45.384;20.390;2023-04-01T04:22:52;17.38;;;10.07;;
55364;SDS011;41245;45.384;20.390;2023-04-01T04:25:18;14.70;;;9.23;;
55364;SDS011;41245;45.384;20.390;2023-04-01T04:27:44;15.45;;;8.90;;
55364;SDS011;41245;45.384;20.390;2023-04-01T04:30:10;22.45;;;9.15;;
55364;SDS011;41245;45.384;20.390;2023-04-01T04:32:36;19.30;;;9.93;;
55364;SDS011;41245;45.384;20.390;2023-04-01T04:35:02;18.45;;;8.35;;
55364;SDS011;41245;45.384;20.390;2023-04-01T04:37:28;14.60;;;8.10;;
55364;SDS011;41245;45.384;20.390;2023-04-01T04:39:54;15.40;;;8.98;;
55364;SDS011;41245;45.384;20.390;2023-04-01T04:42:20;15.82;;;9.57;;
55364;SDS011;41245;45.384;20.390;2023-04-01T04:44:46;16.17;;;9.40;;
55364;SDS011;41245;45.384;20.390;2023-04-01T04:47:12;17.35;;;8.70;;
55364;SDS011;41245;45.384;20.390;2023-04-01T04:49:38;17.85;;;7.70;;
55364;SDS011;41245;45.384;20.390;2023-04-01T04:52:04;21.70;;;10.23;;
55364;SDS011;41245;45.384;20.390;2023-04-01T04:54:31;19.10;;;8.98;;
55364;SDS011;41245;45.384;20.390;2023-04-01T04:56:57;17.67;;;8.88;;
55364;SDS011;41245;45.384;20.390;2023-04-01T04:59:22;19.13;;;8.65;;
55364;SDS011;41245;45.384;20.390;2023-04-01T05:01:48;15.57;;;8.45;;
55364;SDS011;41245;45.384;20.390;2023-04-01T05:04:15;14.93;;;8.25;;
55364;SDS011;41245;45.384;20.390;2023-04-01T05:06:42;14.70;;;7.75;;
55364;SDS011;41245;45.384;20.390;2023-04-01T05:09:09;17.95;;;9.00;;
55364;SDS011;41245;45.384;20.390;2023-04-01T05:11:35;15.05;;;8.63;;
55364;SDS011;41245;45.384;20.390;2023-04-01T05:14:01;21.67;;;9.45;;
55364;SDS011;41245;45.384;20.390;2023-04-01T05:16:27;17.00;;;8.95;;
55364;SDS011;41245;45.384;20.390;2023-04-01T05:18:53;16.90;;;8.88;;
55364;SDS011;41245;45.384;20.390;2023-04-01T05:21:19;18.10;;;10.20;;
55364;SDS011;41245;45.384;20.390;2023-04-01T05:23:45;17.35;;;9.50;;
55364;SDS011;41245;45.384;20.390;2023-04-01T05:26:12;14.75;;;9.70;;
55364;SDS011;41245;45.384;20.390;2023-04-01T05:28:38;17.38;;;10.32;;
55364;SDS011;41245;45.384;20.390;2023-04-01T05:31:05;22.23;;;13.13;;
55364;SDS011;41245;45.384;20.390;2023-04-01T05:33:31;24.13;;;15.38;;
55364;SDS011;41245;45.384;20.390;2023-04-01T05:36:05;24.75;;;12.32;;
55364;SDS011;41245;45.384;20.390;2023-04-01T05:38:31;19.65;;;11.02;;
55364;SDS011;41245;45.384;20.390;2023-04-01T05:41:00;21.55;;;12.35;;
55364;SDS011;41245;45.384;20.390;2023-04-01T05:43:27;25.30;;;12.77;;
55364;SDS011;41245;45.384;20.390;2023-04-01T05:45:53;21.60;;;11.85;;
55364;SDS011;41245;45.384;20.390;2023-04-01T05:48:19;17.58;;;11.55;;
55364;SDS011;41245;45.384;20.390;2023-04-01T05:50:45;20.17;;;12.68;;
55364;SDS011;41245;45.384;20.390;2023-04-01T05:53:10;21.40;;;12.07;;
55364;SDS011;41245;45.384;20.390;2023-04-01T05:55:36;20.70;;;13.38;;
55364;SDS011;41245;45.384;20.390;2023-04-01T05:58:03;25.48;;;13.52;;
55364;SDS011;41245;45.384;20.390;2023-04-01T06:00:29;23.42;;;14.43;;
55364;SDS011;41245;45.384;20.390;2023-04-01T06:02:55;24.75;;;13.82;;
55364;SDS011;41245;45.384;20.390;2023-04-01T06:05:28;17.85;;;11.85;;
55364;SDS011;41245;45.384;20.390;2023-04-01T06:08:01;22.85;;;12.60;;
55364;SDS011;41245;45.384;20.390;2023-04-01T06:13:14;22.00;;;13.43;;
55364;SDS011;41245;45.384;20.390;2023-04-01T06:15:48;23.98;;;13.30;;
55364;SDS011;41245;45.384;20.390;2023-04-01T06:21:02;16.48;;;11.15;;
55364;SDS011;41245;45.384;20.390;2023-04-01T06:28:35;18.85;;;10.40;;
55364;SDS011;41245;45.384;20.390;2023-04-01T06:46:12;19.30;;;10.23;;
55364;SDS011;41245;45.384;20.390;2023-04-01T06:48:53;16.67;;;8.98;;
55364;SDS011;41245;45.384;20.390;2023-04-01T06:56:57;17.58;;;9.52;;
55364;SDS011;41245;45.384;20.390;2023-04-01T06:59:27;15.38;;;8.27;;
55364;SDS011;41245;45.384;20.390;2023-04-01T07:01:58;18.50;;;9.82;;
55364;SDS011;41245;45.384;20.390;2023-04-01T07:04:32;19.67;;;8.80;;
55364;SDS011;41245;45.384;20.390;2023-04-01T07:06:59;11.95;;;6.68;;
55364;SDS011;41245;45.384;20.390;2023-04-01T07:09:30;13.70;;;6.93;;
55364;SDS011;41245;45.384;20.390;2023-04-01T07:11:59;18.45;;;8.88;;
55364;SDS011;41245;45.384;20.390;2023-04-01T07:14:30;15.88;;;9.10;;
55364;SDS011;41245;45.384;20.390;2023-04-01T07:17:04;14.73;;;9.68;;
55364;SDS011;41245;45.384;20.390;2023-04-01T07:22:02;23.52;;;11.93;;
55364;SDS011;41245;45.384;20.390;2023-04-01T07:24:39;25.55;;;11.82;;
55364;SDS011;41245;45.384;20.390;2023-04-01T07:27:10;28.27;;;12.13;;
55364;SDS011;41245;45.384;20.390;2023-04-01T07:29:37;22.67;;;13.35;;
55364;SDS011;41245;45.384;20.390;2023-04-01T07:34:38;22.98;;;10.82;;
55364;SDS011;41245;45.384;20.390;2023-04-01T07:37:10;19.35;;;10.85;;
55364;SDS011;41245;45.384;20.390;2023-04-01T07:50:26;30.67;;;17.70;;
55364;SDS011;41245;45.384;20.390;2023-04-01T07:58:39;25.85;;;14.10;;
55364;SDS011;41245;45.384;20.390;2023-04-01T08:06:30;22.35;;;11.38;;
55364;SDS011;41245;45.384;20.390;2023-04-01T08:09:06;20.65;;;9.15;;
55364;SDS011;41245;45.384;20.390;2023-04-01T08:22:29;11.85;;;5.97;;
55364;SDS011;41245;45.384;20.390;2023-04-01T08:24:57;19.02;;;9.02;;
55364;SDS011;41245;45.384;20.390;2023-04-01T08:27:28;21.13;;;10.38;;
55364;SDS011;41245;45.384;20.390;2023-04-01T08:30:03;22.85;;;9.05;;
55364;SDS011;41245;45.384;20.390;2023-04-01T08:32:39;19.45;;;8.65;;
55364;SDS011;41245;45.384;20.390;2023-04-01T08:35:14;24.80;;;7.90;;
55364;SDS011;41245;45.384;20.390;2023-04-01T08:37:54;17.25;;;7.28;;
55364;SDS011;41245;45.384;20.390;2023-04-01T09:11:26;34.45;;;13.80;;
55364;SDS011;41245;45.384;20.390;2023-04-01T09:27:45;36.35;;;14.60;;
55364;SDS011;41245;45.384;20.390;2023-04-01T09:30:41;36.63;;;14.13;;
55364;SDS011;41245;45.384;20.390;2023-04-01T09:33:38;27.88;;;11.40;;
55364;SDS011;41245;45.384;20.390;2023-04-01T09:36:30;19.88;;;7.20;;
55364;SDS011;41245;45.384;20.390;2023-04-01T09:39:17;15.73;;;5.80;;
55364;SDS011;41245;45.384;20.390;2023-04-01T09:42:13;16.80;;;4.93;;
55364;SDS011;41245;45.384;20.390;2023-04-01T09:44:55;13.35;;;4.95;;
55364;SDS011;41245;45.384;20.390;2023-04-01T10:06:26;20.23;;;8.10;;
55364;SDS011;41245;45.384;20.390;2023-04-01T10:11:05;21.45;;;6.40;;
55364;SDS011;41245;45.384;20.390;2023-04-01T10:18:57;15.43;;;6.70;;
55364;SDS011;41245;45.384;20.390;2023-04-01T10:35:03;9.05;;;3.58;;
55364;SDS011;41245;45.384;20.390;2023-04-01T10:40:24;15.43;;;6.78;;
55364;SDS011;41245;45.384;20.390;2023-04-01T10:48:25;14.40;;;7.68;;
55364;SDS011;41245;45.384;20.390;2023-04-01T10:51:02;16.90;;;6.10;;
55364;SDS011;41245;45.384;20.390;2023-04-01T10:53:36;13.15;;;5.25;;
55364;SDS011;41245;45.384;20.390;2023-04-01T11:21:56;18.20;;;9.00;;
55364;SDS011;41245;45.384;20.390;2023-04-01T11:37:25;14.40;;;8.07;;
55364;SDS011;41245;45.384;20.390;2023-04-01T11:40:17;14.75;;;7.00;;
55364;SDS011;41245;45.384;20.390;2023-04-01T11:42:52;15.35;;;9.00;;
55364;SDS011;41245;45.384;20.390;2023-04-01T11:50:32;17.48;;;7.82;;
55364;SDS011;41245;45.384;20.390;2023-04-01T11:53:23;14.55;;;7.40;;
55364;SDS011;41245;45.384;20.390;2023-04-01T11:58:43;17.45;;;8.00;;
55364;SDS011;41245;45.384;20.390;2023-04-01T12:13:48;14.13;;;7.82;;
55364;SDS011;41245;45.384;20.390;2023-04-01T12:24:47;21.58;;;11.13;;
55364;SDS011;41245;45.384;20.390;2023-04-01T12:32:40;22.40;;;9.25;;
55364;SDS011;41245;45.384;20.390;2023-04-01T12:47:56;21.30;;;9.70;;
55364;SDS011;41245;45.384;20.390;2023-04-01T12:50:37;17.85;;;10.90;;
55364;SDS011;41245;45.384;20.390;2023-04-01T13:00:45;32.75;;;11.63;;
55364;SDS011;41245;45.384;20.390;2023-04-01T13:14:15;18.58;;;9.73;;
55364;SDS011;41245;45.384;20.390;2023-04-01T13:19:36;15.38;;;9.35;;
55364;SDS011;41245;45.384;20.390;2023-04-01T13:24:24;18.35;;;10.57;;
55364;SDS011;41245;45.384;20.390;2023-04-01T13:29:35;23.58;;;11.80;;
55364;SDS011;41245;45.384;20.390;2023-04-01T13:37:15;24.88;;;13.63;;
55364;SDS011;41245;45.384;20.390;2023-04-01T13:56:15;17.42;;;11.05;;
55364;SDS011;41245;45.384;20.390;2023-04-01T13:58:45;15.82;;;10.00;;
55364;SDS011;41245;45.384;20.390;2023-04-01T14:01:17;21.05;;;10.48;;
55364;SDS011;41245;45.384;20.390;2023-04-01T14:17:10;15.57;;;9.90;;
55364;SDS011;41245;45.384;20.390;2023-04-01T14:30:26;20.88;;;10.32;;
55364;SDS011;41245;45.384;20.390;2023-04-01T14:33:12;15.88;;;8.80;;
55364;SDS011;41245;45.384;20.390;2023-04-01T14:35:56;20.25;;;9.32;;
55364;SDS011;41245;45.384;20.390;2023-04-01T14:46:10;20.17;;;11.70;;
55364;SDS011;41245;45.384;20.390;2023-04-01T14:53:53;26.58;;;12.85;;
55364;SDS011;41245;45.384;20.390;2023-04-01T14:56:34;20.20;;;10.35;;
55364;SDS011;41245;45.384;20.390;2023-04-01T14:59:01;15.80;;;9.77;;
55364;SDS011;41245;45.384;20.390;2023-04-01T15:01:38;19.17;;;11.07;;
55364;SDS011;41245;45.384;20.390;2023-04-01T15:06:49;24.92;;;11.95;;
55364;SDS011;41245;45.384;20.390;2023-04-01T15:14:26;25.33;;;14.55;;
55364;SDS011;41245;45.384;20.390;2023-04-01T15:24:43;18.25;;;11.65;;
55364;SDS011;41245;45.384;20.390;2023-04-01T15:32:13;22.65;;;13.05;;
55364;SDS011;41245;45.384;20.390;2023-04-01T15:34:59;18.05;;;11.35;;
55364;SDS011;41245;45.384;20.390;2023-04-01T15:37:48;31.63;;;18.52;;
55364;SDS011;41245;45.384;20.390;2023-04-01T15:47:59;17.83;;;11.27;;
55364;SDS011;41245;45.384;20.390;2023-04-01T15:50:29;21.13;;;13.23;;
55364;SDS011;41245;45.384;20.390;2023-04-01T15:55:31;19.27;;;11.80;;
55364;SDS011;41245;45.384;20.390;2023-04-01T16:03:34;19.98;;;13.23;;
55364;SDS011;41245;45.384;20.390;2023-04-01T16:06:10;19.40;;;9.98;;
55364;SDS011;41245;45.384;20.390;2023-04-01T16:21:33;18.05;;;11.13;;
55364;SDS011;41245;45.384;20.390;2023-04-01T16:26:37;14.63;;;10.85;;
55364;SDS011;41245;45.384;20.390;2023-04-01T16:29:19;15.93;;;10.35;;
55364;SDS011;41245;45.384;20.390;2023-04-01T16:36:54;11.27;;;8.68;;
55364;SDS011;41245;45.384;20.390;2023-04-01T16:39:27;12.30;;;8.55;;
55364;SDS011;41245;45.384;20.390;2023-04-01T16:42:10;11.82;;;7.47;;
55364;SDS011;41245;45.384;20.390;2023-04-01T16:44:49;14.75;;;9.43;;
55364;SDS011;41245;45.384;20.390;2023-04-01T16:47:17;15.35;;;10.00;;
55364;SDS011;41245;45.384;20.390;2023-04-01T16:49:51;14.23;;;9.32;;
55364;SDS011;41245;45.384;20.390;2023-04-01T16:52:30;11.52;;;8.60;;
55364;SDS011;41245;45.384;20.390;2023-04-01T16:55:00;11.77;;;7.72;;
55364;SDS011;41245;45.384;20.390;2023-04-01T16:57:31;9.27;;;6.95;;
55364;SDS011;41245;45.384;20.390;2023-04-01T17:00:09;10.45;;;7.75;;
55364;SDS011;41245;45.384;20.390;2023-04-01T17:02:46;10.07;;;7.38;;
55364;SDS011;41245;45.384;20.390;2023-04-01T17:05:13;14.77;;;9.43;;
55364;SDS011;41245;45.384;20.390;2023-04-01T17:25:42;18.30;;;11.33;;
55364;SDS011;41245;45.384;20.390;2023-04-01T17:28:14;19.83;;;11.38;;
55364;SDS011;41245;45.384;20.390;2023-04-01T17:36:26;18.65;;;10.27;;
55364;SDS011;41245;45.384;20.390;2023-04-01T17:52:27;14.90;;;9.30;;
55364;SDS011;41245;45.384;20.390;2023-04-01T17:57:34;16.95;;;10.98;;
55364;SDS011;41245;45.384;20.390;2023-04-01T18:02:50;9.88;;;7.85;;
55364;SDS011;41245;45.384;20.390;2023-04-01T18:10:34;14.75;;;10.07;;
55364;SDS011;41245;45.384;20.390;2023-04-01T18:20:54;17.17;;;9.40;;
55364;SDS011;41245;45.384;20.390;2023-04-01T18:26:08;13.27;;;8.75;;
55364;SDS011;41245;45.384;20.390;2023-04-01T18:28:43;14.48;;;9.35;;
55364;SDS011;41245;45.384;20.390;2023-04-01T18:31:17;17.88;;;10.80;;
55364;SDS011;41245;45.384;20.390;2023-04-01T18:33:46;11.45;;;8.07;;
55364;SDS011;41245;45.384;20.390;2023-04-01T18:39:03;13.70;;;7.45;;
55364;SDS011;41245;45.384;20.390;2023-04-01T18:41:34;11.85;;;7.47;;
55364;SDS011;41245;45.384;20.390;2023-04-01T18:44:15;14.23;;;7.90;;
55364;SDS011;41245;45.384;20.390;2023-04-01T18:49:21;14.25;;;6.68;;
55364;SDS011;41245;45.384;20.390;2023-04-01T18:51:51;14.75;;;7.32;;
55364;SDS011;41245;45.384;20.390;2023-04-01T18:54:27;8.07;;;5.70;;
55364;SDS011;41245;45.384;20.390;2023-04-01T18:57:02;8.40;;;5.07;;
55364;SDS011;41245;45.384;20.390;2023-04-01T18:59:32;9.80;;;6.50;;
55364;SDS011;41245;45.384;20.390;2023-04-01T19:13:19;6.70;;;3.17;;
55364;SDS011;41245;45.384;20.390;2023-04-01T19:21:18;4.93;;;3.10;;
55364;SDS011;41245;45.384;20.390;2023-04-01T19:23:51;7.20;;;3.80;;
55364;SDS011;41245;45.384;20.390;2023-04-01T19:26:27;4.68;;;3.17;;
55364;SDS011;41245;45.384;20.390;2023-04-01T19:28:56;6.13;;;3.95;;
55364;SDS011;41245;45.384;20.390;2023-04-01T19:31:33;5.50;;;3.83;;
55364;SDS011;41245;45.384;20.390;2023-04-01T19:36:46;7.53;;;2.85;;
55364;SDS011;41245;45.384;20.390;2023-04-01T19:52:29;5.55;;;2.75;;
55364;SDS011;41245;45.384;20.390;2023-04-01T19:57:44;3.92;;;1.80;;
55364;SDS011;41245;45.384;20.390;2023-04-01T20:02:58;6.47;;;2.88;;
55364;SDS011;41245;45.384;20.390;2023-04-01T20:05:30;4.13;;;2.90;;
55364;SDS011;41245;45.384;20.390;2023-04-01T20:08:00;5.28;;;2.33;;
55364;SDS011;41245;45.384;20.390;2023-04-01T20:10:32;4.53;;;2.05;;
55364;SDS011;41245;45.384;20.390;2023-04-01T20:15:28;2.65;;;1.65;;
55364;SDS011;41245;45.384;20.390;2023-04-01T20:17:56;3.63;;;1.98;;
55364;SDS011;41245;45.384;20.390;2023-04-01T20:20:24;5.63;;;3.00;;
55364;SDS011;41245;45.384;20.390;2023-04-01T20:25:22;43.80;;;31.55;;
55364;SDS011;41245;45.384;20.390;2023-04-01T20:27:58;35.50;;;26.35;;
55364;SDS011;41245;45.384;20.390;2023-04-01T20:30:34;16.55;;;11.05;;
55364;SDS011;41245;45.384;20.390;2023-04-01T20:51:24;9.90;;;3.67;;
55364;SDS011;41245;45.384;20.390;2023-04-01T20:54:17;7.07;;;3.38;;
55364;SDS011;41245;45.384;20.390;2023-04-01T20:57:23;10.23;;;3.78;;
55364;SDS011;41245;45.384;20.390;2023-04-01T21:08:14;7.28;;;3.92;;
55364;SDS011;41245;45.384;20.390;2023-04-01T21:13:06;8.05;;;4.30;;
55364;SDS011;41245;45.384;20.390;2023-04-01T22:00:25;9.02;;;4.70;;
55364;SDS011;41245;45.384;20.390;2023-04-01T22:13:04;9.85;;;3.35;;
55364;SDS011;41245;45.384;20.390;2023-04-01T22:18:13;3.00;;;2.17;;
55364;SDS011;41245;45.384;20.390;2023-04-01T22:21:26;5.68;;;2.50;;
55364;SDS011;41245;45.384;20.390;2023-04-01T22:26:21;4.60;;;1.98;;
55364;SDS011;41245;45.384;20.390;2023-04-01T22:29:09;3.03;;;1.85;;
55364;SDS011;41245;45.384;20.390;2023-04-01T22:31:50;8.68;;;2.17;;
55364;SDS011;41245;45.384;20.390;2023-04-01T22:37:16;3.00;;;2.20;;
55364;SDS011;41245;45.384;20.390;2023-04-01T22:40:00;4.68;;;2.47;;
55364;SDS011;41245;45.384;20.390;2023-04-01T22:42:46;3.53;;;2.30;;
55364;SDS011;41245;45.384;20.390;2023-04-01T22:48:05;5.40;;;2.63;;
55364;SDS011;41245;45.384;20.390;2023-04-01T22:53:26;8.80;;;2.38;;
55364;SDS011;41245;45.384;20.390;2023-04-01T22:55:53;3.22;;;2.47;;
55364;SDS011;41245;45.384;20.390;2023-04-01T22:58:30;4.63;;;2.85;;
55364;SDS011;41245;45.384;20.390;2023-04-01T23:00:58;7.05;;;3.00;;
55364;SDS011;41245;45.384;20.390;2023-04-01T23:03:27;5.13;;;2.97;;
55364;SDS011;41245;45.384;20.390;2023-04-01T23:05:55;11.38;;;4.07;;
55364;SDS011;41245;45.384;20.390;2023-04-01T23:13:32;6.20;;;3.80;;
55364;SDS011;41245;45.384;20.390;2023-04-01T23:16:02;8.68;;;4.30;;
55364;SDS011;41245;45.384;20.390;2023-04-01T23:25:54;13.18;;;6.82;;
55364;SDS011;41245;45.384;20.390;2023-04-01T23:30:52;13.00;;;7.80;;
55364;SDS011;41245;45.384;20.390;2023-04-01T23:35:48;15.18;;;9.95;;
55364;SDS011;41245;45.384;20.390;2023-04-01T23:38:15;15.30;;;9.20;;
55364;SDS011;41245;45.384;20.390;2023-04-01T23:40:41;15.80;;;9.10;;
55364;SDS011;41245;45.384;20.390;2023-04-01T23:43:14;20.27;;;9.70;;
55364;SDS011;41245;45.384;20.390;2023-04-01T23:45:43;15.88;;;8.30;;
55364;SDS011;41245;45.384;20.390;2023-04-01T23:48:13;16.45;;;8.85;;
55364;SDS011;41245;45.384;20.390;2023-04-01T23:50:41;17.30;;;9.60;;
55364;SDS011;41245;45.384;20.390;2023-04-01T23:53:17;17.33;;;8.85;;
55364;SDS011;41245;45.384;20.390;2023-04-01T23:55:44;15.63;;;8.25;;
55364;SDS011;41245;45.384;20.390;2023-04-01T23:58:24;16.35;;;8.75;;
